Time;durP1;ratioP1;P1;durP2;ratioP2;P2;SDS_P1;SDS_P2;PMS_P1;PMS_P2;Temp;Humidity;BMP_temperature;BMP_pressure;BME280_temperature;BME280_humidity;BME280_pressure;Samples;Min_cycle;Max_cycle;Signal;HPM_P1;HPM_P2
2022/07/07 00:01:00;;;;;;;3.90;1.83;;;16.30;99.90;;;;;;5074912;28;20204;-75
2022/07/07 00:03:28;;;;;;;7.93;1.90;;;16.30;99.90;;;;;;5075068;28;20247;-77
2022/07/07 00:05:57;;;;;;;3.87;1.80;;;16.20;99.90;;;;;;5074748;28;20231;-76
2022/07/07 00:08:25;;;;;;;5.43;1.80;;;16.10;99.90;;;;;;5074735;28;20235;-75
2022/07/07 00:10:53;;;;;;;5.83;1.80;;;16.10;99.90;;;;;;5074512;28;20302;-77
2022/07/07 00:13:23;;;;;;;5.07;1.90;;;16.00;99.90;;;;;;5074923;28;20609;-74
2022/07/07 00:15:51;;;;;;;2.50;1.90;;;16.00;99.90;;;;;;5069467;28;20211;-77
2022/07/07 00:18:20;;;;;;;4.00;1.97;;;16.00;99.90;;;;;;5059240;28;20263;-78
2022/07/07 00:20:49;;;;;;;3.50;1.70;;;16.00;99.90;;;;;;5054276;28;20270;-76
2022/07/07 00:23:17;;;;;;;5.20;1.90;;;15.90;99.90;;;;;;5068245;28;20204;-76
2022/07/07 00:25:45;;;;;;;2.07;1.80;;;15.90;99.90;;;;;;5073711;28;20223;-78
2022/07/07 00:28:13;;;;;;;2.70;1.60;;;15.90;99.90;;;;;;5074161;28;20281;-75
2022/07/07 00:30:43;;;;;;;4.03;1.70;;;15.80;99.90;;;;;;5073019;28;20569;-74
2022/07/07 00:33:11;;;;;;;4.87;1.90;;;15.80;99.90;;;;;;5076114;28;20243;-73
2022/07/07 00:35:39;;;;;;;5.30;1.90;;;15.80;99.90;;;;;;5076435;28;20200;-76
2022/07/07 00:38:07;;;;;;;3.87;1.93;;;15.70;99.90;;;;;;5075356;28;20302;-74
2022/07/07 00:40:36;;;;;;;3.90;2.00;;;15.70;99.90;;;;;;5073975;28;20298;-75
2022/07/07 00:43:04;;;;;;;5.43;2.10;;;15.60;99.90;;;;;;5073779;28;20211;-76
2022/07/07 00:45:33;;;;;;;6.33;2.20;;;15.50;99.90;;;;;;5074198;28;20318;-75
2022/07/07 00:48:02;;;;;;;3.87;2.00;;;15.40;99.90;;;;;;5074395;28;20207;-79
2022/07/07 00:50:30;;;;;;;7.93;2.03;;;15.40;99.90;;;;;;5076997;28;20200;-76
2022/07/07 00:52:58;;;;;;;4.40;2.07;;;15.30;99.90;;;;;;5074465;28;20721;-78
2022/07/07 00:55:27;;;;;;;3.77;1.90;;;15.30;99.90;;;;;;5087987;28;20206;-76
2022/07/07 00:57:55;;;;;;;3.70;1.90;;;15.20;99.90;;;;;;5093840;28;20289;-78
2022/07/07 01:00:23;;;;;;;3.40;1.90;;;15.20;99.90;;;;;;5093733;28;20285;-78
2022/07/07 01:02:52;;;;;;;3.60;1.90;;;15.10;99.90;;;;;;5093663;28;20207;-75
2022/07/07 01:05:24;;;;;;;3.60;2.20;;;15.10;99.90;;;;;;5093785;28;20238;-77
2022/07/07 01:07:53;;;;;;;3.47;2.20;;;15.00;99.90;;;;;;5093692;28;20231;-78
2022/07/07 01:10:22;;;;;;;3.10;2.23;;;15.10;99.90;;;;;;5093332;28;20290;-75
2022/07/07 01:12:50;;;;;;;5.70;2.20;;;15.10;99.90;;;;;;5093206;28;20235;-77
2022/07/07 01:15:18;;;;;;;5.33;2.30;;;15.10;99.90;;;;;;5093683;28;20306;-76
2022/07/07 01:17:46;;;;;;;3.53;1.90;;;15.10;99.90;;;;;;5088825;28;20240;-75
2022/07/07 01:20:15;;;;;;;2.97;2.30;;;15.10;99.90;;;;;;5073079;28;20697;-77
2022/07/07 01:22:48;;;;;;;3.33;2.30;;;15.00;99.90;;;;;;5073159;28;20242;-76
2022/07/07 01:25:17;;;;;;;5.03;2.13;;;15.10;99.90;;;;;;5073080;28;20294;-76
2022/07/07 01:27:45;;;;;;;3.43;1.90;;;15.00;99.90;;;;;;5072801;28;20388;-77
2022/07/07 01:30:14;;;;;;;3.83;2.13;;;15.00;99.90;;;;;;5072877;28;20265;-79
2022/07/07 01:32:43;;;;;;;3.17;2.20;;;15.00;99.90;;;;;;5092159;28;20291;-76
2022/07/07 01:35:12;;;;;;;4.60;2.20;;;14.90;99.90;;;;;;5072579;28;20537;-78
2022/07/07 01:37:40;;;;;;;3.53;2.30;;;14.90;99.90;;;;;;5072243;28;20697;-78
2022/07/07 01:40:10;;;;;;;3.70;2.20;;;14.90;99.90;;;;;;5072298;28;20307;-77
2022/07/07 01:42:38;;;;;;;5.27;2.20;;;14.80;99.90;;;;;;5072538;28;20216;-78
2022/07/07 01:45:08;;;;;;;3.23;2.20;;;14.80;99.90;;;;;;5072396;28;20227;-76
2022/07/07 01:47:36;;;;;;;3.07;2.40;;;14.80;99.90;;;;;;5072455;28;20796;-75
2022/07/07 01:50:06;;;;;;;5.63;2.40;;;14.80;99.90;;;;;;5072547;28;20269;-77
2022/07/07 01:52:35;;;;;;;3.30;2.10;;;14.70;99.90;;;;;;5072732;28;20310;-77
2022/07/07 01:55:04;;;;;;;3.17;2.20;;;14.70;99.90;;;;;;5072026;28;20729;-78
2022/07/07 01:57:33;;;;;;;5.27;2.60;;;14.70;99.90;;;;;;5072293;28;20307;-77
2022/07/07 02:00:01;;;;;;;4.33;2.30;;;14.60;99.90;;;;;;5071892;28;20738;-78
2022/07/07 02:02:30;;;;;;;3.43;2.30;;;14.50;99.90;;;;;;5072475;28;20210;-78
2022/07/07 02:04:58;;;;;;;5.47;2.77;;;14.50;99.90;;;;;;5072415;28;20235;-77
2022/07/07 02:07:26;;;;;;;3.93;2.27;;;14.50;99.90;;;;;;5072254;28;20230;-75
2022/07/07 02:09:55;;;;;;;5.33;2.70;;;14.50;99.90;;;;;;5072256;28;20298;-76
2022/07/07 02:12:23;;;;;;;3.63;2.37;;;14.40;99.90;;;;;;5072463;28;20291;-78
2022/07/07 02:14:52;;;;;;;5.93;2.20;;;14.30;99.90;;;;;;5072007;28;20250;-80
2022/07/07 02:17:20;;;;;;;4.00;2.37;;;14.30;99.90;;;;;;5072807;28;20266;-76
2022/07/07 02:19:48;;;;;;;4.97;2.50;;;14.20;99.90;;;;;;5071815;28;20823;-75
2022/07/07 02:22:17;;;;;;;6.53;2.50;;;14.10;99.90;;;;;;5077882;28;20217;-74
2022/07/07 02:24:47;;;;;;;2.97;2.50;;;14.10;99.90;;;;;;5092109;28;20217;-74
2022/07/07 02:27:15;;;;;;;5.07;2.50;;;14.00;99.90;;;;;;5091729;28;20772;-77
2022/07/07 02:29:43;;;;;;;5.63;2.50;;;14.00;99.90;;;;;;5091609;28;20241;-76
2022/07/07 02:32:12;;;;;;;4.87;2.57;;;13.90;99.90;;;;;;5084073;28;20246;-75
2022/07/07 02:34:41;;;;;;;4.03;2.70;;;13.80;99.90;;;;;;5072074;28;20607;-75
2022/07/07 02:37:10;;;;;;;2.80;2.50;;;13.80;99.90;;;;;;5072110;28;20203;-76
2022/07/07 02:39:39;;;;;;;4.43;2.70;;;13.70;99.90;;;;;;5071306;28;20290;-75
2022/07/07 02:42:07;;;;;;;3.57;2.80;;;13.70;99.90;;;;;;5071817;28;20218;-74
2022/07/07 02:44:35;;;;;;;2.80;2.60;;;13.60;99.90;;;;;;5071385;28;20650;-75
2022/07/07 02:47:04;;;;;;;3.47;2.77;;;13.60;99.90;;;;;;5071550;28;20265;-75
2022/07/07 02:49:33;;;;;;;6.53;2.90;;;13.50;99.90;;;;;;5071350;28;20294;-77
2022/07/07 02:52:03;;;;;;;3.20;2.90;;;13.50;99.90;;;;;;5071777;28;20298;-77
2022/07/07 02:54:31;;;;;;;3.77;2.57;;;13.40;99.90;;;;;;5071358;28;20235;-78
2022/07/07 02:56:59;;;;;;;5.07;2.60;;;13.40;99.90;;;;;;5071423;28;20615;-75
2022/07/07 02:59:27;;;;;;;5.07;2.70;;;13.40;99.90;;;;;;5070978;28;20643;-78
2022/07/07 03:01:55;;;;;;;3.13;2.80;;;13.30;99.90;;;;;;5071761;28;20299;-78
2022/07/07 03:04:24;;;;;;;5.60;2.70;;;13.30;99.90;;;;;;5071282;28;20234;-79
2022/07/07 03:06:54;;;;;;;5.83;3.30;;;13.30;99.90;;;;;;5071314;28;20269;-78
2022/07/07 03:09:22;;;;;;;6.40;3.00;;;13.30;99.90;;;;;;5071802;28;20291;-75
2022/07/07 03:11:50;;;;;;;4.80;2.80;;;13.30;99.90;;;;;;5072140;28;20598;-76
2022/07/07 03:14:18;;;;;;;3.70;2.80;;;13.30;99.90;;;;;;5071410;28;20680;-78
2022/07/07 03:16:47;;;;;;;5.20;3.03;;;13.40;99.90;;;;;;5071826;28;20209;-78
2022/07/07 03:19:15;;;;;;;6.17;2.80;;;13.40;99.90;;;;;;5071464;28;20745;-78
2022/07/07 03:21:43;;;;;;;3.70;2.90;;;13.40;99.90;;;;;;5073220;28;20204;-76
2022/07/07 03:24:13;;;;;;;3.90;2.60;;;13.40;99.90;;;;;;5092635;28;20353;-76
2022/07/07 03:26:41;;;;;;;8.97;2.93;;;13.40;99.90;;;;;;5094205;28;20246;-77
2022/07/07 03:29:09;;;;;;;2.93;2.53;;;13.50;99.90;;;;;;5094393;28;20275;-77
2022/07/07 03:31:38;;;;;;;6.60;2.90;;;13.50;99.90;;;;;;5080627;28;20231;-73
2022/07/07 03:34:06;;;;;;;6.33;3.10;;;13.50;99.90;;;;;;5073604;28;20247;-75
2022/07/07 03:36:35;;;;;;;6.87;2.97;;;13.60;99.90;;;;;;5074059;28;20302;-77
2022/07/07 03:39:03;;;;;;;4.73;2.97;;;13.60;99.90;;;;;;5071436;28;20674;-77
2022/07/07 03:41:33;;;;;;;5.20;2.90;;;13.60;99.90;;;;;;5071151;28;20224;-75
2022/07/07 03:44:01;;;;;;;6.33;2.97;;;13.70;99.90;;;;;;5071244;28;20216;-76
2022/07/07 03:46:29;;;;;;;4.37;2.93;;;13.70;99.90;;;;;;5058541;28;20232;-78
2022/07/07 03:48:58;;;;;;;5.47;3.00;;;13.70;99.90;;;;;;5066936;28;20215;-78
2022/07/07 03:51:26;;;;;;;4.53;3.30;;;13.70;99.90;;;;;;5069744;28;20212;-75
2022/07/07 03:53:54;;;;;;;6.30;2.70;;;13.80;99.90;;;;;;5069489;28;20216;-76
2022/07/07 03:56:23;;;;;;;4.30;2.70;;;13.80;99.90;;;;;;5070225;28;20707;-76
2022/07/07 03:58:52;;;;;;;4.13;2.90;;;13.80;99.90;;;;;;5070846;28;20227;-77
2022/07/07 04:01:20;;;;;;;7.30;3.07;;;13.80;99.90;;;;;;5071907;28;20269;-76
2022/07/07 04:03:48;;;;;;;3.30;2.97;;;13.90;99.90;;;;;;5074397;28;20239;-77
2022/07/07 04:06:17;;;;;;;4.63;2.90;;;13.90;99.90;;;;;;5071930;28;20258;-78
2022/07/07 04:08:45;;;;;;;6.90;3.07;;;13.90;99.90;;;;;;5074691;28;20245;-77
2022/07/07 04:11:13;;;;;;;6.63;2.80;;;13.90;99.90;;;;;;5076467;28;20686;-76
2022/07/07 04:13:42;;;;;;;4.03;2.97;;;13.90;99.90;;;;;;5076939;28;20226;-77
2022/07/07 04:16:11;;;;;;;4.63;2.83;;;14.00;99.90;;;;;;5072414;28;20207;-76
2022/07/07 04:18:40;;;;;;;5.10;2.70;;;14.00;99.90;;;;;;5078293;28;20219;-73
2022/07/07 04:21:08;;;;;;;5.57;3.20;;;14.10;99.90;;;;;;5065230;28;20226;-76
2022/07/07 04:23:36;;;;;;;5.63;2.80;;;14.00;99.90;;;;;;5074175;28;20268;-77
2022/07/07 04:26:09;;;;;;;4.17;3.00;;;14.00;99.90;;;;;;5073894;28;20208;-78
2022/07/07 04:28:37;;;;;;;5.03;2.80;;;14.10;99.90;;;;;;5066771;28;20200;-78
2022/07/07 04:31:06;;;;;;;4.13;2.60;;;14.10;99.90;;;;;;5074571;28;20210;-77
2022/07/07 04:33:36;;;;;;;7.53;3.17;;;14.10;99.90;;;;;;5073599;28;20543;-78
2022/07/07 04:36:04;;;;;;;3.23;2.70;;;14.20;99.90;;;;;;5073972;28;20821;-77
2022/07/07 04:38:33;;;;;;;3.10;2.63;;;14.10;99.90;;;;;;5073974;28;20207;-77
2022/07/07 04:41:01;;;;;;;5.63;3.00;;;14.20;99.90;;;;;;5073252;28;20212;-78
2022/07/07 04:43:29;;;;;;;3.67;2.80;;;14.30;99.90;;;;;;5075489;28;20228;-76
2022/07/07 04:45:57;;;;;;;4.97;2.77;;;14.30;99.90;;;;;;5071599;28;20199;-77
2022/07/07 04:48:25;;;;;;;4.50;2.70;;;14.40;99.90;;;;;;5075841;28;20231;-76
2022/07/07 04:50:55;;;;;;;5.43;2.67;;;14.40;99.90;;;;;;5086766;28;20688;-73
2022/07/07 04:53:23;;;;;;;4.43;2.53;;;14.50;99.90;;;;;;5075322;28;20255;-75
2022/07/07 04:55:52;;;;;;;5.60;2.60;;;14.60;99.90;;;;;;5081247;28;20207;-75
2022/07/07 04:58:20;;;;;;;4.17;3.00;;;14.70;99.90;;;;;;5073263;28;20257;-76
2022/07/07 05:00:48;;;;;;;5.70;2.67;;;14.70;99.90;;;;;;5072472;28;20210;-76
2022/07/07 05:03:27;;;;;;;3.87;2.63;;;14.80;99.90;;;;;;5073288;28;20207;-74
2022/07/07 05:05:57;;;;;;;4.97;2.50;;;14.90;99.90;;;;;;5073459;28;20203;-75
2022/07/07 05:08:25;;;;;;;6.73;2.70;;;14.80;99.90;;;;;;5073087;28;20247;-74
2022/07/07 05:10:53;;;;;;;5.63;2.80;;;14.80;99.90;;;;;;5069703;28;20653;-75
2022/07/07 05:13:22;;;;;;;6.43;3.50;;;14.80;99.90;;;;;;5073042;28;20238;-76
2022/07/07 05:15:50;;;;;;;4.00;2.60;;;14.80;99.90;;;;;;5072442;28;20199;-77
2022/07/07 05:18:18;;;;;;;4.93;2.87;;;15.30;99.90;;;;;;5072494;28;20204;-75
2022/07/07 05:20:46;;;;;;;5.70;2.40;;;15.50;99.90;;;;;;5068967;28;20319;-73
2022/07/07 05:23:16;;;;;;;3.13;2.63;;;15.70;99.90;;;;;;5072563;28;20235;-74
2022/07/07 05:25:44;;;;;;;4.77;2.60;;;15.90;99.90;;;;;;5063701;28;20277;-74
2022/07/07 05:28:12;;;;;;;5.70;2.70;;;15.90;99.90;;;;;;5052886;28;20294;-76
2022/07/07 05:30:42;;;;;;;8.83;3.00;;;16.00;99.90;;;;;;5053863;28;20739;-77
2022/07/07 05:33:10;;;;;;;5.13;2.73;;;15.90;99.90;;;;;;5072865;28;20225;-76
2022/07/07 05:35:39;;;;;;;4.50;2.80;;;16.00;99.90;;;;;;5073099;28;20251;-75
2022/07/07 05:38:07;;;;;;;5.30;2.70;;;16.00;99.90;;;;;;5072230;28;20233;-76
2022/07/07 05:40:36;;;;;;;5.63;2.73;;;15.90;99.90;;;;;;5072137;28;20246;-76
2022/07/07 05:43:05;;;;;;;4.63;2.50;;;15.90;99.90;;;;;;5072115;28;20638;-79
2022/07/07 05:45:33;;;;;;;3.97;2.87;;;16.00;99.90;;;;;;5073577;28;20211;-75
2022/07/07 05:48:01;;;;;;;4.73;2.57;;;15.90;99.90;;;;;;5073671;28;20264;-76
2022/07/07 05:50:36;;;;;;;3.60;2.50;;;15.80;99.90;;;;;;5071917;28;20240;-76
2022/07/07 05:53:04;;;;;;;5.97;2.80;;;16.10;99.90;;;;;;5071989;28;20793;-75
2022/07/07 05:55:32;;;;;;;2.97;2.00;;;16.10;99.90;;;;;;5072627;28;20226;-77
2022/07/07 05:58:02;;;;;;;5.97;2.53;;;16.20;99.90;;;;;;5072810;28;20327;-76
2022/07/07 06:00:31;;;;;;;4.03;2.37;;;16.20;99.90;;;;;;5071127;28;20257;-75
2022/07/07 06:02:59;;;;;;;6.97;2.80;;;16.30;99.90;;;;;;5069757;28;20261;-77
2022/07/07 06:05:28;;;;;;;3.97;2.40;;;16.10;99.90;;;;;;5068612;28;20290;-76
2022/07/07 06:07:56;;;;;;;6.93;2.67;;;16.00;99.90;;;;;;5071822;28;20268;-75
2022/07/07 06:10:24;;;;;;;7.03;2.53;;;15.90;99.90;;;;;;5072278;28;20242;-77
2022/07/07 06:12:52;;;;;;;4.90;2.60;;;15.90;99.90;;;;;;5071814;28;20239;-75
2022/07/07 06:15:23;;;;;;;5.63;2.67;;;15.90;99.90;;;;;;5055728;28;20211;-76
2022/07/07 06:17:51;;;;;;;5.23;2.27;;;15.90;99.90;;;;;;5071475;28;20243;-80
2022/07/07 06:20:37;;;;;;;4.13;2.40;;;15.90;99.90;;;;;;5070503;28;20203;-74
2022/07/07 06:23:06;;;;;;;8.17;2.60;;;16.00;99.90;;;;;;5067249;28;20622;-76
2022/07/07 06:25:35;;;;;;;7.17;2.40;;;16.00;99.90;;;;;;5070072;28;20200;-75
2022/07/07 06:28:06;;;;;;;6.50;2.63;;;16.00;99.90;;;;;;5070726;28;20801;-75
2022/07/07 06:30:36;;;;;;;7.53;2.87;;;16.00;99.90;;;;;;5070906;28;20269;-77
2022/07/07 06:33:14;;;;;;;4.50;2.70;;;16.10;99.90;;;;;;5072673;28;20214;-75
2022/07/07 06:35:56;;;;;;;5.30;2.80;;;16.20;99.90;;;;;;5070567;28;20265;-76
2022/07/07 06:38:25;;;;;;;5.17;2.70;;;16.00;99.90;;;;;;5071280;28;20307;-73
2022/07/07 06:40:57;;;;;;;4.13;2.60;;;15.90;99.90;;;;;;5070539;28;20234;-75
2022/07/07 06:43:26;;;;;;;3.50;2.23;;;15.90;99.90;;;;;;5070879;28;20238;-78
2022/07/07 06:45:57;;;;;;;3.43;2.30;;;15.90;99.90;;;;;;5071089;28;20207;-75
2022/07/07 06:48:26;;;;;;;5.60;2.80;;;16.00;99.90;;;;;;5071682;28;20243;-78
2022/07/07 06:50:54;;;;;;;7.57;2.57;;;15.90;99.90;;;;;;5069693;28;20200;-78
2022/07/07 06:53:23;;;;;;;5.87;2.80;;;16.00;99.90;;;;;;5071389;28;20257;-77
2022/07/07 06:55:51;;;;;;;7.53;2.80;;;16.00;99.90;;;;;;5070684;28;20211;-77
2022/07/07 06:58:22;;;;;;;7.93;2.50;;;16.00;99.90;;;;;;5071301;28;20681;-78
2022/07/07 07:00:50;;;;;;;3.90;2.30;;;16.00;99.90;;;;;;5070943;28;20200;-75
2022/07/07 07:03:20;;;;;;;4.10;2.57;;;16.10;99.90;;;;;;5070986;28;20379;-77
2022/07/07 07:05:48;;;;;;;6.20;2.53;;;16.20;99.90;;;;;;5070358;28;20211;-73
2022/07/07 07:08:24;;;;;;;4.50;2.40;;;16.30;99.90;;;;;;5071117;28;20567;-77
2022/07/07 07:10:53;;;;;;;8.30;2.37;;;16.40;99.90;;;;;;5072953;28;20230;-78
2022/07/07 07:13:21;;;;;;;6.07;2.47;;;16.40;99.90;;;;;;5076707;28;20230;-76
2022/07/07 07:15:49;;;;;;;5.00;2.40;;;16.60;99.90;;;;;;5076816;28;20226;-76
2022/07/07 07:18:17;;;;;;;5.07;2.57;;;16.70;99.90;;;;;;5071447;28;20281;-78
2022/07/07 07:20:47;;;;;;;6.77;2.50;;;16.60;99.90;;;;;;5070286;28;20218;-76
2022/07/07 07:23:15;;;;;;;3.83;2.50;;;16.60;99.90;;;;;;5071083;28;20277;-75
2022/07/07 07:25:44;;;;;;;4.10;2.30;;;16.60;99.90;;;;;;5071183;28;20299;-76
2022/07/07 07:28:12;;;;;;;4.67;2.50;;;16.80;99.90;;;;;;5071024;28;20227;-77
2022/07/07 07:30:40;;;;;;;4.90;2.40;;;16.90;99.90;;;;;;5070880;28;20735;-75
2022/07/07 07:33:09;;;;;;;3.90;2.30;;;16.90;99.90;;;;;;5071947;28;20291;-79
2022/07/07 07:35:37;;;;;;;6.17;2.60;;;17.10;99.90;;;;;;5074903;28;20246;-76
2022/07/07 07:38:07;;;;;;;4.57;2.57;;;17.30;99.90;;;;;;5075098;28;20306;-77
2022/07/07 07:40:36;;;;;;;6.20;2.50;;;17.70;99.90;;;;;;5074854;28;20207;-74
2022/07/07 07:43:04;;;;;;;7.63;2.43;;;17.70;99.90;;;;;;5074885;28;20211;-76
2022/07/07 07:45:33;;;;;;;5.80;2.50;;;17.70;99.90;;;;;;5074570;28;20241;-78
2022/07/07 07:48:03;;;;;;;5.67;2.40;;;17.70;99.90;;;;;;5074498;28;20650;-76
2022/07/07 07:50:32;;;;;;;5.37;2.80;;;17.70;99.90;;;;;;5074725;28;20207;-75
2022/07/07 07:53:06;;;;;;;6.77;2.67;;;17.60;99.90;;;;;;5074864;28;20257;-77
2022/07/07 07:55:35;;;;;;;2.93;2.30;;;17.50;99.90;;;;;;5074677;28;20234;-77
2022/07/07 07:58:04;;;;;;;4.07;2.30;;;17.50;99.90;;;;;;5074372;28;20203;-75
2022/07/07 08:00:32;;;;;;;4.37;2.30;;;17.50;99.90;;;;;;5075034;28;20584;-78
2022/07/07 08:03:06;;;;;;;10.20;2.40;;;17.70;99.90;;;;;;5074877;28;20192;-76
2022/07/07 08:05:34;;;;;;;3.70;2.20;;;17.60;99.90;;;;;;5074540;28;20204;-75
2022/07/07 08:08:03;;;;;;;3.60;2.00;;;17.70;99.90;;;;;;5075131;28;20200;-77
2022/07/07 08:10:33;;;;;;;5.10;2.30;;;18.00;99.90;;;;;;5073994;28;20684;-77
2022/07/07 08:13:01;;;;;;;6.63;2.37;;;18.30;99.90;;;;;;5074673;28;20269;-78
2022/07/07 08:15:30;;;;;;;4.30;2.10;;;18.90;99.90;;;;;;5074489;28;20277;-77
2022/07/07 08:17:58;;;;;;;3.87;2.10;;;19.40;99.90;;;;;;5074217;28;20554;-76
2022/07/07 08:20:27;;;;;;;4.10;1.83;;;19.80;99.90;;;;;;5074178;28;20212;-75
2022/07/07 08:22:56;;;;;;;5.33;2.10;;;19.70;99.90;;;;;;5074429;28;20219;-76
2022/07/07 08:25:24;;;;;;;4.63;1.93;;;19.70;99.90;;;;;;5074120;28;20661;-78
2022/07/07 08:27:53;;;;;;;9.10;2.00;;;19.70;99.90;;;;;;5074343;28;20212;-77
2022/07/07 08:30:22;;;;;;;4.97;2.30;;;19.60;99.90;;;;;;5073653;28;20235;-78
2022/07/07 08:32:50;;;;;;;3.77;1.90;;;19.60;99.90;;;;;;5074348;28;20207;-77
2022/07/07 08:35:19;;;;;;;3.63;1.80;;;19.60;99.90;;;;;;5074195;28;20214;-76
2022/07/07 08:37:47;;;;;;;3.67;1.90;;;19.80;99.90;;;;;;5073786;28;20302;-77
2022/07/07 08:40:16;;;;;;;3.73;1.87;;;19.90;99.90;;;;;;5073954;28;20299;-73
2022/07/07 08:42:44;;;;;;;4.70;1.77;;;19.90;99.90;;;;;;5073700;28;20254;-77
2022/07/07 08:45:14;;;;;;;2.83;1.53;;;20.00;99.90;;;;;;5073325;28;20208;-76
2022/07/07 08:47:43;;;;;;;3.50;1.70;;;19.90;99.90;;;;;;5074014;28;20299;-77
2022/07/07 08:50:17;;;;;;;5.93;1.93;;;20.20;99.90;;;;;;5073434;28;20247;-76
2022/07/07 08:52:50;;;;;;;6.83;1.77;;;20.20;99.90;;;;;;5074102;28;20196;-77
2022/07/07 08:55:22;;;;;;;3.50;1.57;;;20.10;99.90;;;;;;5073743;28;20192;-76
2022/07/07 08:57:52;;;;;;;4.57;1.53;;;19.90;99.90;;;;;;5073797;28;20203;-76
2022/07/07 09:00:23;;;;;;;2.83;1.77;;;19.70;99.90;;;;;;5073824;28;20261;-75
2022/07/07 09:02:56;;;;;;;6.03;1.80;;;19.70;99.90;;;;;;5074158;28;20286;-77
2022/07/07 09:05:24;;;;;;;5.87;1.67;;;19.60;99.90;;;;;;5074253;28;20194;-77
2022/07/07 09:07:54;;;;;;;3.20;1.47;;;19.80;99.90;;;;;;5074101;28;20235;-76
2022/07/07 09:10:30;;;;;;;3.33;1.47;;;19.90;99.90;;;;;;5073591;28;20227;-77
2022/07/07 09:12:59;;;;;;;4.87;1.80;;;20.10;99.90;;;;;;5073402;28;20688;-73
2022/07/07 09:15:38;;;;;;;5.17;1.70;;;20.30;99.90;;;;;;5073706;28;20224;-75
2022/07/07 09:18:06;;;;;;;3.30;1.50;;;20.50;99.90;;;;;;5074069;28;20736;-76
2022/07/07 09:20:36;;;;;;;4.30;1.80;;;20.50;99.90;;;;;;5075327;28;20669;-74
2022/07/07 09:23:05;;;;;;;2.90;1.63;;;20.60;99.90;;;;;;5074637;28;20700;-74
2022/07/07 09:25:33;;;;;;;6.00;1.73;;;20.60;99.90;;;;;;5074554;28;20215;-77
2022/07/07 09:28:03;;;;;;;3.03;1.30;;;20.80;99.90;;;;;;5074728;28;20218;-79
2022/07/07 09:30:37;;;;;;;3.80;1.50;;;20.60;99.90;;;;;;5073702;28;20220;-73
2022/07/07 09:33:11;;;;;;;3.17;1.70;;;20.20;99.90;;;;;;5073911;28;20200;-76
2022/07/07 09:38:28;;;;;;;3.40;1.50;;;19.70;99.90;;;;;;5074063;28;20215;-73
2022/07/07 09:41:01;;;;;;;4.57;1.60;;;19.30;99.90;;;;;;5073540;28;20298;-76
2022/07/07 09:43:33;;;;;;;4.13;1.70;;;18.90;99.90;;;;;;5073617;28;20219;-75
2022/07/07 09:46:14;;;;;;;4.90;2.00;;;18.60;99.90;;;;;;5075169;28;20235;-77
2022/07/07 09:48:45;;;;;;;4.17;2.00;;;18.40;99.90;;;;;;5075003;28;20195;-78
2022/07/07 09:51:24;;;;;;;7.47;2.00;;;18.30;99.90;;;;;;5074595;28;20227;-74
2022/07/07 09:54:04;;;;;;;5.10;1.97;;;18.10;99.90;;;;;;5075273;28;20195;-74
2022/07/07 09:56:35;;;;;;;4.53;1.90;;;18.20;99.90;;;;;;5074045;28;20210;-77
2022/07/07 09:59:06;;;;;;;6.20;2.13;;;18.30;99.90;;;;;;5074666;28;20274;-76
2022/07/07 10:01:37;;;;;;;7.13;1.97;;;18.30;99.90;;;;;;5074962;28;20211;-76
2022/07/07 10:04:07;;;;;;;4.40;1.70;;;18.40;99.90;;;;;;5075249;28;20253;-75
2022/07/07 10:06:38;;;;;;;5.57;1.80;;;18.40;99.90;;;;;;5075709;28;20204;-75
2022/07/07 10:09:07;;;;;;;6.07;1.90;;;18.50;99.90;;;;;;5073696;28;20237;-78
2022/07/07 10:11:39;;;;;;;3.47;2.00;;;18.50;99.90;;;;;;5073507;28;20234;-77
2022/07/07 10:14:15;;;;;;;4.37;1.70;;;18.40;99.90;;;;;;5073055;28;20732;-76
2022/07/07 10:16:46;;;;;;;5.43;2.10;;;18.20;99.90;;;;;;5074829;28;20263;-77
2022/07/07 10:19:17;;;;;;;5.23;2.40;;;18.00;99.90;;;;;;5073941;28;20188;-76
2022/07/07 10:21:48;;;;;;;3.97;2.03;;;18.00;99.90;;;;;;5077055;28;20220;-75
2022/07/07 10:24:18;;;;;;;4.27;2.20;;;18.00;99.90;;;;;;5075370;28;20188;-77
2022/07/07 10:26:50;;;;;;;4.00;2.20;;;17.90;99.90;;;;;;5076206;28;20774;-75
2022/07/07 10:29:36;;;;;;;5.53;2.07;;;17.90;99.90;;;;;;5076678;28;20269;-76
2022/07/07 10:32:11;;;;;;;4.73;2.00;;;18.00;99.90;;;;;;5076154;28;20237;-75
2022/07/07 10:34:40;;;;;;;5.87;1.97;;;17.90;99.90;;;;;;5076621;28;20243;-77
2022/07/07 10:37:10;;;;;;;3.17;2.00;;;17.90;99.90;;;;;;5081521;28;20287;-77
2022/07/07 10:39:43;;;;;;;5.23;2.33;;;17.90;99.90;;;;;;5079944;28;20184;-75
2022/07/07 10:42:44;;;;;;;4.60;1.90;;;17.90;99.90;;;;;;5077975;28;20669;-75
2022/07/07 10:45:14;;;;;;;3.40;1.70;;;18.00;99.90;;;;;;5073965;28;20293;-75
2022/07/07 10:47:44;;;;;;;6.20;1.90;;;18.20;99.90;;;;;;5074258;28;20245;-78
2022/07/07 10:50:30;;;;;;;4.40;1.93;;;18.50;99.90;;;;;;5073331;28;20235;-74
2022/07/07 10:53:01;;;;;;;3.57;2.10;;;18.80;99.90;;;;;;5073318;28;20235;-73
2022/07/07 10:55:58;;;;;;;3.83;1.50;;;19.10;99.90;;;;;;5052848;28;20192;-75
2022/07/07 10:59:02;;;;;;;5.50;1.60;;;19.30;99.90;;;;;;5052141;28;20639;-74
2022/07/07 11:01:31;;;;;;;4.07;1.73;;;19.50;99.90;;;;;;5047531;28;20215;-75
2022/07/07 11:04:01;;;;;;;2.83;1.40;;;19.30;99.90;;;;;;5051583;28;20295;-74
2022/07/07 11:06:30;;;;;;;3.70;2.00;;;19.20;99.90;;;;;;5052569;28;20215;-76
2022/07/07 11:09:03;;;;;;;3.10;1.90;;;19.00;99.90;;;;;;5054082;28;20208;-76
2022/07/07 11:11:32;;;;;;;4.53;1.77;;;18.90;99.90;;;;;;5056087;28;20318;-75
2022/07/07 11:14:08;;;;;;;5.73;2.10;;;18.50;99.90;;;;;;5056273;28;20204;-75
2022/07/07 11:16:39;;;;;;;5.87;2.10;;;18.30;99.90;;;;;;5055879;28;20231;-73
2022/07/07 11:19:10;;;;;;;3.87;1.90;;;18.10;99.90;;;;;;5055800;28;20192;-76
2022/07/07 11:21:43;;;;;;;1.80;1.60;;;18.00;99.90;;;;;;5055435;28;20204;-77
2022/07/07 11:24:20;;;;;;;5.97;2.20;;;17.90;99.90;;;;;;5055682;28;20246;-74
2022/07/07 11:26:55;;;;;;;2.87;2.00;;;17.80;99.90;;;;;;5055397;28;20196;-76
2022/07/07 11:29:24;;;;;;;4.27;2.10;;;17.90;99.90;;;;;;5055554;28;20211;-77
2022/07/07 11:32:04;;;;;;;3.00;1.97;;;17.90;99.90;;;;;;5056047;28;20234;-76
2022/07/07 11:34:49;;;;;;;3.00;2.17;;;17.90;99.90;;;;;;5056362;28;20208;-74
2022/07/07 11:37:19;;;;;;;4.43;2.20;;;18.00;99.90;;;;;;5055745;28;20188;-78
2022/07/07 11:39:47;;;;;;;4.47;2.10;;;18.20;99.90;;;;;;5055191;28;20670;-76
2022/07/07 11:42:15;;;;;;;7.90;1.90;;;18.20;99.90;;;;;;5055043;28;20239;-77
2022/07/07 11:44:44;;;;;;;4.37;1.87;;;18.30;99.90;;;;;;5054831;28;20216;-77
2022/07/07 11:47:12;;;;;;;2.87;1.77;;;18.40;99.90;;;;;;5054411;28;20745;-77
2022/07/07 11:49:41;;;;;;;3.43;1.90;;;18.50;99.90;;;;;;5054770;28;20630;-76
2022/07/07 11:52:16;;;;;;;4.17;1.93;;;18.40;99.90;;;;;;5059001;28;20310;-78
2022/07/07 11:54:47;;;;;;;8.07;4.70;;;18.40;99.90;;;;;;5074721;28;20215;-77
2022/07/07 11:57:29;;;;;;;7.33;2.90;;;18.20;99.90;;;;;;5074443;28;20218;-77
2022/07/07 12:00:10;;;;;;;4.73;1.97;;;18.30;99.90;;;;;;5074758;28;20306;-76
2022/07/07 12:02:39;;;;;;;4.47;2.20;;;18.20;99.90;;;;;;5074886;28;20531;-77
2022/07/07 12:05:08;;;;;;;4.23;1.63;;;18.10;99.90;;;;;;5066311;28;20211;-77
2022/07/07 12:07:39;;;;;;;4.90;2.10;;;18.00;99.90;;;;;;5074304;28;20684;-76
2022/07/07 12:10:20;;;;;;;3.90;2.20;;;18.10;99.90;;;;;;5074197;28;20192;-77
2022/07/07 12:12:56;;;;;;;6.33;2.33;;;18.00;99.90;;;;;;5074594;28;20199;-77
2022/07/07 12:15:28;;;;;;;5.40;2.27;;;18.20;99.90;;;;;;5074395;28;20642;-77
2022/07/07 12:17:57;;;;;;;4.87;2.50;;;18.20;99.90;;;;;;5074081;28;20227;-78
2022/07/07 12:20:25;;;;;;;4.27;2.87;;;18.10;99.90;;;;;;5072894;28;20208;-77
2022/07/07 12:22:57;;;;;;;4.57;3.10;;;17.90;99.90;;;;;;5074645;28;20207;-76
2022/07/07 12:25:26;;;;;;;5.33;3.20;;;17.70;99.90;;;;;;5074670;28;20222;-76
2022/07/07 12:28:09;;;;;;;4.93;2.87;;;17.80;99.90;;;;;;5074158;28;20298;-78
2022/07/07 12:30:50;;;;;;;4.73;2.70;;;17.70;99.90;;;;;;5074188;28;20250;-75
2022/07/07 12:33:25;;;;;;;5.63;2.90;;;17.40;99.90;;;;;;5074371;28;20220;-78
2022/07/07 12:35:59;;;;;;;5.03;2.90;;;17.40;99.90;;;;;;5074365;28;20396;-76
2022/07/07 12:38:38;;;;;;;3.87;2.87;;;17.40;99.90;;;;;;5074338;28;20195;-78
2022/07/07 12:41:07;;;;;;;6.53;3.07;;;17.50;99.90;;;;;;5073639;28;20302;-74
2022/07/07 12:43:37;;;;;;;7.67;2.80;;;17.80;99.90;;;;;;5074099;28;20243;-79
2022/07/07 12:46:10;;;;;;;4.50;2.83;;;17.80;99.90;;;;;;5074010;28;20298;-78
2022/07/07 12:48:50;;;;;;;4.33;2.57;;;18.30;99.90;;;;;;5073962;28;20215;-77
2022/07/07 12:51:24;;;;;;;4.00;2.50;;;18.70;99.90;;;;;;5066989;28;20280;-78
2022/07/07 12:53:55;;;;;;;3.83;2.70;;;18.60;99.90;;;;;;5073895;28;20201;-76
2022/07/07 12:56:32;;;;;;;6.57;2.90;;;18.50;99.90;;;;;;5073606;28;20219;-76
2022/07/07 12:59:01;;;;;;;6.40;3.23;;;18.10;99.90;;;;;;5073342;28;20211;-77
2022/07/07 13:01:30;;;;;;;4.87;2.83;;;18.00;99.90;;;;;;5074139;28;20769;-78
2022/07/07 13:03:59;;;;;;;6.07;2.83;;;18.10;99.90;;;;;;5073627;28;20218;-77
2022/07/07 13:06:28;;;;;;;3.50;2.40;;;18.20;99.90;;;;;;5073537;28;20231;-78